TimeEET,TemperatureF,Dew PointF,Humidity,Sea Level PressureIn,VisibilityMPH,Wind Direction,Wind SpeedMPH,Gust SpeedMPH,PrecipitationIn,Events,Conditions,WindDirDegrees,DateUTC
12:50 AM,35.6,32.0,87,30.12,6.2,Variable,1.2,-,N/A,,Mostly Cloudy,0,2012-11-14 22:50:00
1:50 AM,37.4,33.8,87,30.12,6.2,ENE,3.5,-,N/A,,Mostly Cloudy,70,2012-11-14 23:50:00
2:00 AM,38,35,82,,7,ENE,3.5,,,,Partly Cloudy,70,2012-11-15 00:00:00
2:50 AM,39.2,35.6,87,30.12,6.2,ESE,1.2,-,N/A,,Mostly Cloudy,120,2012-11-15 00:50:00
3:50 AM,37.4,35.6,93,30.15,6.2,SE,4.6,-,N/A,,Mostly Cloudy,140,2012-11-15 01:50:00
4:50 AM,35.6,32.0,87,30.15,6.2,East,2.3,-,N/A,,Mostly Cloudy,90,2012-11-15 02:50:00
5:50 AM,33.8,32.0,93,30.18,6.2,NE,5.8,-,N/A,,Mostly Cloudy,50,2012-11-15 03:50:00
6:50 AM,39.2,37.4,93,30.21,6.2,East,2.3,-,N/A,,Scattered Clouds,80,2012-11-15 04:50:00
7:50 AM,48.2,37.4,66,30.21,6.2,Variable,1.2,-,N/A,,Scattered Clouds,0,2012-11-15 05:50:00
8:00 AM,48,37,56,,7,SSW,1.2,,,,Partly Cloudy,200,2012-11-15 06:00:00
8:50 AM,50.0,37.4,62,30.21,6.2,South,3.5,-,N/A,,Scattered Clouds,180,2012-11-15 06:50:00
9:50 AM,50.0,37.4,62,30.21,6.2,West,4.6,-,N/A,,Scattered Clouds,280,2012-11-15 07:50:00
10:50 AM,50.0,37.4,62,30.21,6.2,WNW,6.9,-,N/A,,Scattered Clouds,300,2012-11-15 08:50:00
11:50 AM,50.0,35.6,58,30.21,6.2,WNW,6.9,-,N/A,,Scattered Clouds,290,2012-11-15 09:50:00
12:50 PM,51.8,35.6,54,30.21,6.2,West,6.9,-,N/A,,Scattered Clouds,280,2012-11-15 10:50:00
1:50 PM,51.8,35.6,54,30.21,6.2,WNW,5.8,-,N/A,,Scattered Clouds,290,2012-11-15 11:50:00
2:00 PM,51,35,42,,7,WNW,5.8,,,,Partly Cloudy,290,2012-11-15 12:00:00
2:50 PM,51.8,33.8,50,30.21,6.2,West,4.6,-,N/A,,Scattered Clouds,280,2012-11-15 12:50:00
3:50 PM,46.4,32.0,57,30.21,6.2,Calm,Calm,-,N/A,,Scattered Clouds,0,2012-11-15 13:50:00
4:50 PM,44.6,33.8,66,30.21,6.2,SE,3.5,-,N/A,,Scattered Clouds,140,2012-11-15 14:50:00
5:50 PM,41.0,33.8,76,30.24,6.2,ESE,3.5,-,N/A,,Scattered Clouds,120,2012-11-15 15:50:00
6:50 PM,39.2,33.8,81,30.24,6.2,SE,2.3,-,N/A,,Scattered Clouds,130,2012-11-15 16:50:00
7:50 PM,37.4,33.8,87,30.24,6.2,Calm,Calm,-,N/A,,Partly Cloudy,0,2012-11-15 17:50:00
8:00 PM,37,33,82,,6,Calm,Calm,,,,Scattered Clouds,,2012-11-15 18:00:00
8:50 PM,35.6,32.0,87,30.27,6.2,ESE,3.5,-,N/A,,Partly Cloudy,110,2012-11-15 18:50:00
9:50 PM,35.6,32.0,87,30.27,6.2,East,3.5,-,N/A,,Partly Cloudy,100,2012-11-15 19:50:00
10:50 PM,35.6,32.0,87,30.27,6.2,Calm,Calm,-,N/A,,Partly Cloudy,0,2012-11-15 20:50:00
11:50 PM,32.0,30.2,93,30.27,6.2,ENE,3.5,-,N/A,,Partly Cloudy,70,2012-11-15 21:50:00